Homewood, Illinois
Current Conditions -  °F | °C
As of 12:35 PM on Wednesday 26 Nov 2014 (Local Time) from KIGQ Reporting Station
Overcast Overcast  
Wind Chill: 20°   Ceiling: 1600
Heat Index: 27°   Visibility: 10mi
Dew Point: 20°   Wind: 6mph
Humidity: 77%   Direction: 120°ESE
Pressure: 30.12"   Gusts: NA
Location:  41.56°N, 87.66°W
Report Text: KIGQ 261835Z AUTO 12005KT 10SM OVC016 M03/M06 A3012 RMK AO2 T10301065
Loading
Personal Weather Stations






























Interactive Weather Map New forecast layout! Learn more

10-Day Weather Forecast

Advertisements
Track Severe Weather on mobile